createdAt,value
2022-08-07T00:02:40.650Z,59.51
2022-08-07T00:04:39.918Z,59.72
2022-08-07T00:07:05.114Z,59.73
2022-08-07T00:09:35.607Z,59.95
2022-08-07T00:11:58.747Z,60.04
2022-08-07T00:14:20.849Z,60.24
2022-08-07T00:16:47.420Z,60.07
2022-08-07T00:19:09.512Z,60.55
2022-08-07T00:21:56.569Z,60.45
2022-08-07T00:24:24.131Z,60.59
2022-08-07T00:26:58.942Z,60.38
2022-08-07T00:29:32.080Z,60.70
2022-08-07T00:31:54.589Z,60.76
2022-08-07T00:34:16.445Z,60.81
2022-08-07T00:36:44.507Z,60.82
2022-08-07T00:39:06.645Z,61.13
2022-08-07T00:41:37.389Z,60.96
2022-08-07T00:44:15.878Z,61.27
2022-08-07T00:46:38.935Z,61.59
2022-08-07T00:49:03.105Z,61.61
2022-08-07T00:51:27.888Z,61.57
2022-08-07T00:54:07.682Z,62.00
2022-08-07T00:56:35.091Z,62.28
2022-08-07T00:58:58.896Z,62.19
2022-08-07T01:01:22.260Z,62.45
2022-08-07T01:03:55.546Z,62.50
2022-08-07T01:06:21.843Z,62.57
2022-08-07T01:08:53.038Z,62.57
2022-08-07T01:12:04.462Z,62.69
2022-08-07T01:13:59.767Z,62.89
2022-08-07T01:16:30.070Z,62.56
2022-08-07T01:18:55.159Z,62.28
2022-08-07T01:21:22.928Z,62.14
2022-08-07T01:23:54.045Z,62.05
2022-08-07T01:26:20.692Z,62.42
2022-08-07T01:28:48.495Z,62.88
2022-08-07T01:31:21.290Z,62.70
2022-08-07T01:33:56.141Z,62.85
2022-08-07T01:36:33.195Z,62.83
2022-08-07T01:38:59.022Z,62.92
2022-08-07T01:41:26.133Z,63.42
2022-08-07T01:43:52.416Z,63.05
2022-08-07T01:46:17.397Z,63.38
2022-08-07T01:48:46.580Z,63.23
2022-08-07T01:52:01.032Z,63.43
2022-08-07T01:54:13.081Z,63.90
2022-08-07T01:57:24.728Z,63.48
2022-08-07T02:00:12.948Z,63.66
2022-08-07T02:03:19.465Z,63.84
2022-08-07T02:05:59.426Z,64.03
2022-08-07T02:08:26.330Z,64.13
2022-08-07T02:10:55.267Z,63.80
2022-08-07T02:13:22.866Z,63.98
2022-08-07T02:16:11.803Z,64.48
2022-08-07T02:18:45.400Z,64.50
2022-08-07T02:21:09.263Z,64.76
2022-08-07T02:23:41.230Z,64.34
2022-08-07T02:26:30.414Z,64.46
2022-08-07T02:28:49.630Z,64.39
2022-08-07T02:31:18.890Z,64.40
2022-08-07T02:34:03.930Z,64.56
2022-08-07T02:36:41.366Z,64.29
2022-08-07T02:39:16.600Z,64.59
2022-08-07T02:41:47.298Z,64.55
2022-08-07T02:44:17.911Z,64.61
2022-08-07T02:46:46.878Z,65.40
2022-08-07T02:49:29.133Z,65.29
2022-08-07T02:52:03.405Z,65.40
2022-08-07T02:54:32.356Z,65.66
2022-08-07T02:57:01.604Z,65.32
2022-08-07T02:59:27.856Z,65.52
2022-08-07T03:01:55.682Z,65.54
2022-08-07T03:04:21.249Z,65.72
2022-08-07T03:06:48.152Z,65.26
2022-08-07T03:09:11.748Z,65.46
2022-08-07T03:11:38.516Z,65.79
2022-08-07T03:14:05.770Z,65.84
2022-08-07T03:16:28.684Z,65.73
2022-08-07T03:18:52.948Z,65.77
2022-08-07T03:21:18.851Z,66.11
2022-08-07T03:24:20.400Z,66.01
2022-08-07T03:26:32.073Z,66.06
2022-08-07T03:29:00.520Z,66.05
2022-08-07T03:31:42.404Z,66.09
2022-08-07T03:34:09.594Z,66.24
2022-08-07T03:36:41.840Z,66.16
2022-08-07T03:39:09.820Z,66.20
2022-08-07T03:41:41.660Z,66.34
2022-08-07T03:44:06.634Z,66.34
2022-08-07T03:46:33.410Z,66.18
2022-08-07T03:49:02.584Z,66.49
2022-08-07T03:51:47.234Z,66.30
2022-08-07T03:54:36.255Z,66.25
2022-08-07T03:57:03.656Z,66.57
2022-08-07T03:59:29.456Z,66.45
2022-08-07T04:01:55.698Z,66.81
2022-08-07T04:04:19.596Z,66.43
2022-08-07T04:06:51.036Z,66.81
2022-08-07T04:09:16.290Z,66.86
2022-08-07T04:12:27.983Z,66.71
2022-08-07T04:14:38.782Z,67.02
2022-08-07T04:17:29.374Z,66.96
2022-08-07T04:19:54.230Z,66.94
2022-08-07T04:22:19.806Z,66.96
2022-08-07T04:24:48.432Z,66.84
2022-08-07T04:27:20.256Z,67.25
2022-08-07T04:29:58.952Z,67.27
2022-08-07T04:32:35.200Z,67.03
2022-08-07T04:34:59.656Z,67.32
2022-08-07T04:37:21.748Z,67.52
2022-08-07T04:39:49.897Z,67.34
2022-08-07T04:42:12.897Z,67.59
2022-08-07T04:44:36.702Z,67.98
2022-08-07T04:47:57.177Z,67.65
2022-08-07T04:50:45.268Z,67.63
2022-08-07T04:54:01.090Z,67.87
2022-08-07T04:58:10.699Z,67.67
2022-08-07T05:00:14.359Z,67.93
2022-08-07T05:02:30.057Z,68.16
2022-08-07T05:05:11.835Z,68.38
2022-08-07T05:08:08.476Z,68.09
2022-08-07T05:10:58.596Z,68.49
2022-08-07T05:14:52.902Z,68.59
2022-08-07T05:16:24.020Z,68.56
2022-08-07T05:18:56.166Z,68.97
2022-08-07T05:22:00.034Z,69.10
2022-08-07T05:24:13.462Z,69.34
2022-08-07T05:26:38.414Z,69.23
2022-08-07T05:29:10.129Z,69.13
2022-08-07T05:31:38.614Z,69.35
2022-08-07T05:34:10.983Z,68.97
2022-08-07T05:36:39.158Z,68.79
2022-08-07T05:39:09.134Z,69.09
2022-08-07T05:42:01.512Z,69.23
2022-08-07T05:44:29.834Z,69.25
2022-08-07T05:46:56.494Z,69.06
2022-08-07T05:49:22.934Z,69.05
2022-08-07T05:51:47.438Z,69.30
2022-08-07T05:54:30.796Z,68.94
2022-08-07T05:56:59.296Z,68.84
2022-08-07T05:59:23.687Z,68.91
2022-08-07T06:01:53.990Z,69.07
2022-08-07T06:04:22.166Z,68.92
2022-08-07T06:06:56.400Z,68.95
2022-08-07T06:09:19.109Z,69.02
2022-08-07T06:11:45.329Z,69.23
2022-08-07T06:14:12.538Z,69.11
2022-08-07T06:16:50.467Z,68.96
2022-08-07T06:19:17.879Z,69.20
2022-08-07T06:22:15.513Z,68.94
2022-08-07T06:24:53.184Z,68.74
2022-08-07T06:28:00.336Z,68.48
2022-08-07T06:30:35.146Z,68.51
2022-08-07T06:32:50.944Z,68.29
2022-08-07T06:35:17.737Z,68.09
2022-08-07T06:37:43.492Z,68.00
2022-08-07T06:40:13.177Z,67.65
2022-08-07T06:42:42.874Z,67.62
2022-08-07T06:45:23.911Z,67.34
2022-08-07T06:47:57.329Z,66.80
2022-08-07T06:50:23.114Z,66.04
2022-08-07T06:52:53.239Z,65.85
2022-08-07T06:55:53.387Z,65.70
2022-08-07T06:58:16.770Z,65.43
2022-08-07T07:00:53.245Z,65.29
2022-08-07T07:03:17.305Z,65.05
2022-08-07T07:06:05.751Z,64.96
2022-08-07T07:08:28.957Z,64.58
2022-08-07T07:10:56.505Z,64.18
2022-08-07T07:13:55.366Z,63.75
2022-08-07T07:16:21.579Z,62.98
2022-08-07T07:18:50.165Z,61.89
2022-08-07T07:21:27.162Z,61.64
2022-08-07T07:24:08.527Z,61.57
2022-08-07T07:26:37.979Z,61.04
2022-08-07T07:29:56.080Z,60.60
2022-08-07T07:31:55.533Z,60.88
2022-08-07T07:34:30.586Z,60.24
2022-08-07T07:36:56.566Z,60.11
2022-08-07T07:39:52.336Z,59.34
2022-08-07T07:42:22.067Z,59.66
2022-08-07T07:44:59.734Z,59.05
2022-08-07T07:47:24.851Z,58.47
2022-08-07T07:50:33.101Z,58.25
2022-08-07T07:52:32.440Z,57.41
2022-08-07T07:54:56.899Z,56.33
2022-08-07T07:57:43.728Z,55.62
2022-08-07T08:00:09.328Z,55.24
2022-08-07T08:03:04.585Z,55.18
2022-08-07T08:05:23.125Z,55.31
2022-08-07T08:08:01.073Z,54.33
2022-08-07T08:10:37.744Z,53.41
2022-08-07T08:13:03.087Z,53.33
2022-08-07T08:15:28.595Z,52.92
2022-08-07T08:18:17.217Z,51.71
2022-08-07T08:20:43.575Z,50.59
2022-08-07T08:23:30.754Z,50.39
2022-08-07T08:26:21.799Z,50.87
2022-08-07T08:28:48.255Z,51.00
2022-08-07T08:31:58.956Z,50.27
2022-08-07T08:34:26.819Z,49.89
2022-08-07T08:36:57.646Z,49.14
2022-08-07T08:39:20.657Z,49.08
2022-08-07T08:42:02.131Z,49.26
2022-08-07T08:44:58.546Z,47.52
2022-08-07T08:47:52.956Z,47.51
2022-08-07T08:50:34.850Z,45.07
2022-08-07T08:53:19.709Z,44.77
2022-08-07T08:55:58.877Z,46.23
2022-08-07T08:58:43.139Z,46.40
2022-08-07T09:01:29.920Z,45.99
2022-08-07T09:04:25.934Z,44.13
2022-08-07T09:07:23.235Z,44.27
2022-08-07T09:10:16.288Z,44.80
2022-08-07T09:13:20.002Z,44.30
2022-08-07T09:16:36.503Z,43.51
2022-08-07T09:19:57.412Z,43.97
2022-08-07T09:24:31.401Z,43.68
2022-08-07T09:26:05.584Z,43.12
2022-08-07T09:30:02.141Z,42.90
2022-08-07T09:32:18.576Z,40.81
2022-08-07T09:36:03.403Z,41.96
2022-08-07T09:38:10.369Z,42.20
2022-08-07T09:40:54.274Z,41.67
2022-08-07T09:44:06.895Z,41.81
2022-08-07T09:47:49.910Z,40.49
2022-08-07T09:50:18.978Z,40.74
2022-08-07T09:52:51.943Z,41.58
2022-08-07T09:56:09.176Z,40.99
2022-08-07T09:59:13.900Z,39.83
2022-08-07T10:02:07.862Z,39.95
2022-08-07T10:04:39.249Z,39.00
2022-08-07T10:07:31.782Z,39.75
2022-08-07T10:10:21.715Z,38.33
2022-08-07T10:13:15.902Z,39.79
2022-08-07T10:16:15.126Z,39.57
2022-08-07T10:19:22.792Z,40.63
2022-08-07T10:22:33.437Z,41.25
2022-08-07T10:25:23.583Z,40.50
2022-08-07T10:28:58.204Z,39.78
2022-08-07T10:31:49.602Z,38.66
2022-08-07T10:34:37.439Z,37.92
2022-08-07T10:38:00.197Z,38.18
2022-08-07T10:40:47.745Z,37.38
2022-08-07T10:43:34.358Z,36.30
2022-08-07T10:46:02.242Z,36.57
2022-08-07T10:48:51.181Z,37.03
2022-08-07T10:51:57.250Z,37.17
2022-08-07T10:54:23.957Z,36.78
2022-08-07T10:57:05.499Z,37.21
2022-08-07T10:59:58.952Z,37.12
2022-08-07T11:02:55.528Z,36.89
2022-08-07T11:05:55.948Z,36.80
2022-08-07T11:08:36.024Z,36.92
2022-08-07T11:11:14.099Z,35.23
2022-08-07T11:14:44.639Z,35.02
2022-08-07T11:17:23.154Z,34.40
2022-08-07T11:20:11.113Z,33.87
2022-08-07T11:22:51.904Z,33.75
2022-08-07T11:25:48.265Z,33.58
2022-08-07T11:28:41.430Z,33.62
2022-08-07T11:31:35.322Z,33.51
2022-08-07T11:34:19.607Z,33.53
2022-08-07T11:36:58.203Z,33.77
2022-08-07T11:40:01.210Z,33.79
2022-08-07T11:43:29.599Z,34.25
2022-08-07T11:46:40.480Z,34.49
2022-08-07T11:50:18.649Z,32.00
2022-08-07T11:52:56.105Z,31.57
2022-08-07T11:56:25.910Z,32.01
2022-08-07T11:58:49.910Z,31.72
2022-08-07T12:01:59.532Z,32.15
2022-08-07T12:05:15.323Z,32.06
2022-08-07T12:08:03.772Z,31.80
2022-08-07T12:11:20.688Z,32.36
2022-08-07T12:14:19.167Z,31.56
2022-08-07T12:17:19.589Z,31.51
2022-08-07T12:20:09.487Z,31.25
2022-08-07T12:22:58.333Z,32.04
2022-08-07T12:26:21.596Z,32.07
2022-08-07T12:29:00.709Z,32.26
2022-08-07T12:32:01.701Z,32.74
2022-08-07T12:34:31.635Z,32.41
2022-08-07T12:36:57.729Z,31.59
2022-08-07T12:39:43.094Z,30.48
2022-08-07T12:42:12.176Z,30.11
2022-08-07T12:44:39.885Z,30.61
2022-08-07T12:47:30.782Z,30.76
2022-08-07T12:50:40.312Z,30.94
2022-08-07T12:53:27.651Z,29.37
2022-08-07T12:56:09.216Z,29.88
2022-08-07T12:58:39.374Z,29.64
2022-08-07T13:01:32.033Z,29.95
2022-08-07T13:04:32.579Z,29.23
2022-08-07T13:08:13.798Z,29.66
2022-08-07T13:10:44.794Z,30.27
2022-08-07T13:13:48.473Z,30.05
2022-08-07T13:16:42.966Z,30.62
2022-08-07T13:19:46.331Z,30.16
2022-08-07T13:22:19.810Z,30.19
2022-08-07T13:25:02.982Z,30.65
2022-08-07T13:28:10.706Z,30.53
2022-08-07T13:30:41.106Z,29.45
2022-08-07T13:34:30.854Z,29.33
2022-08-07T13:36:17.777Z,29.54
2022-08-07T13:38:49.685Z,29.34
2022-08-07T13:41:54.880Z,29.83
2022-08-07T13:44:26.867Z,28.98
2022-08-07T13:47:00.538Z,29.08
2022-08-07T13:50:35.898Z,29.44
2022-08-07T13:52:30.649Z,28.88
2022-08-07T13:54:50.479Z,29.70
2022-08-07T13:57:24.094Z,28.89
2022-08-07T13:59:55.670Z,28.56
2022-08-07T14:02:33.305Z,28.49
2022-08-07T14:05:07.596Z,29.34
2022-08-07T14:07:38.031Z,29.43
2022-08-07T14:10:21.599Z,29.73
2022-08-07T14:13:00.591Z,28.80
2022-08-07T14:15:38.508Z,28.64
2022-08-07T14:18:29.182Z,28.66
2022-08-07T14:21:07.100Z,28.89
2022-08-07T14:24:01.236Z,29.10
2022-08-07T14:26:31.894Z,28.62
2022-08-07T14:31:42.709Z,28.49
2022-08-07T14:34:07.477Z,28.30
2022-08-07T14:36:34.591Z,28.49
2022-08-07T14:39:01.842Z,28.82
2022-08-07T14:41:34.057Z,29.48
2022-08-07T14:44:15.759Z,29.37
2022-08-07T14:49:58.029Z,28.27
2022-08-07T14:52:13.932Z,28.71
2022-08-07T14:54:43.171Z,29.22
2022-08-07T14:57:11.418Z,29.21
2022-08-07T15:00:04.826Z,28.42
2022-08-07T15:02:33.957Z,28.51
2022-08-07T15:04:57.542Z,28.82
2022-08-07T15:07:24.850Z,29.09
2022-08-07T15:10:11.215Z,29.06
2022-08-07T15:12:42.769Z,29.59
2022-08-07T15:15:29.455Z,29.52
2022-08-07T15:18:14.346Z,29.25
2022-08-07T15:26:51.589Z,28.56
2022-08-07T15:30:04.879Z,28.88
2022-08-07T15:32:06.608Z,28.51
2022-08-07T15:34:37.708Z,28.70
2022-08-07T15:37:27.755Z,29.08
2022-08-07T15:39:59.487Z,29.35
2022-08-07T15:42:47.873Z,29.27
2022-08-07T15:45:22.297Z,29.41
2022-08-07T15:51:01.993Z,29.93
2022-08-07T15:53:52.400Z,29.62
2022-08-07T15:56:17.862Z,29.33
2022-08-07T15:58:52.297Z,29.86
2022-08-07T16:01:44.755Z,30.20
2022-08-07T16:04:33.496Z,30.12
2022-08-07T16:07:00.244Z,30.08
2022-08-07T16:09:42.406Z,30.18
2022-08-07T16:12:37.860Z,30.63
2022-08-07T16:15:54.619Z,30.49
2022-08-07T16:19:03.573Z,30.41
2022-08-07T16:22:03.538Z,30.58
2022-08-07T16:24:52.578Z,30.40
2022-08-07T16:27:39.819Z,31.02
2022-08-07T16:30:30.616Z,30.65
2022-08-07T16:34:02.030Z,30.54
2022-08-07T16:36:33.974Z,30.43
2022-08-07T16:39:57.673Z,30.71
2022-08-07T16:43:02.564Z,30.07
2022-08-07T16:47:05.622Z,30.46
2022-08-07T16:50:27.752Z,31.00
2022-08-07T16:52:52.475Z,31.41
2022-08-07T16:55:47.197Z,31.12
2022-08-07T16:59:14.805Z,30.77
2022-08-07T17:02:14.338Z,31.43
2022-08-07T17:06:01.746Z,31.72
2022-08-07T17:08:09.064Z,32.35
2022-08-07T17:10:54.867Z,32.44
2022-08-07T17:13:20.324Z,32.31
2022-08-07T17:15:57.574Z,32.86
2022-08-07T17:18:54.283Z,33.16
2022-08-07T17:21:23.652Z,33.61
2022-08-07T17:24:30.182Z,33.57
2022-08-07T17:27:04.162Z,34.24
2022-08-07T17:30:15.380Z,34.24
2022-08-07T17:32:52.920Z,34.00
2022-08-07T17:35:51.508Z,34.40
2022-08-07T17:38:33.670Z,34.67
2022-08-07T17:42:02.938Z,34.64
2022-08-07T17:44:35.066Z,34.39
2022-08-07T17:47:54.098Z,34.80
2022-08-07T17:50:33.910Z,35.09
2022-08-07T17:53:06.162Z,35.14
2022-08-07T17:55:55.795Z,35.04
2022-08-07T17:58:39.884Z,34.85
2022-08-07T18:01:22.616Z,34.89
2022-08-07T18:04:07.929Z,34.41
2022-08-07T18:07:19.549Z,34.30
2022-08-07T18:10:05.710Z,34.01
2022-08-07T18:12:35.674Z,33.76
2022-08-07T18:15:17.999Z,33.56
2022-08-07T18:18:44.853Z,33.84
2022-08-07T18:21:06.021Z,33.47
2022-08-07T18:24:02.355Z,32.82
2022-08-07T18:27:06.363Z,32.38
2022-08-07T18:30:05.749Z,32.46
2022-08-07T18:33:15.281Z,32.91
2022-08-07T18:36:15.015Z,33.40
2022-08-07T18:40:06.997Z,34.24
2022-08-07T18:42:13.041Z,35.12
2022-08-07T18:45:44.819Z,35.24
2022-08-07T18:50:05.841Z,35.96
2022-08-07T18:52:38.049Z,36.75
2022-08-07T18:54:54.031Z,37.49
2022-08-07T18:57:36.825Z,37.74
2022-08-07T19:00:33.070Z,38.16
2022-08-07T19:03:11.935Z,38.89
2022-08-07T19:06:08.296Z,39.34
2022-08-07T19:08:46.507Z,39.37
2022-08-07T19:11:35.610Z,40.18
2022-08-07T19:14:36.068Z,40.20
2022-08-07T19:17:10.833Z,40.86
2022-08-07T19:20:29.378Z,40.85
2022-08-07T19:23:18.279Z,41.04
2022-08-07T19:26:25.248Z,41.47
2022-08-07T19:30:57.065Z,41.76
2022-08-07T19:31:58.688Z,42.20
2022-08-07T19:34:33.715Z,42.30
2022-08-07T19:37:09.980Z,42.62
2022-08-07T19:39:57.868Z,42.62
2022-08-07T19:42:30.568Z,43.27
2022-08-07T19:44:57.213Z,43.36
2022-08-07T19:47:29.052Z,43.57
2022-08-07T19:50:03.025Z,43.72
2022-08-07T19:52:44.519Z,43.95
2022-08-07T19:55:24.153Z,44.10
2022-08-07T19:58:04.507Z,44.72
2022-08-07T20:00:36.625Z,44.81
2022-08-07T20:03:33.491Z,45.09
2022-08-07T20:06:01.949Z,45.49
2022-08-07T20:08:34.031Z,45.77
2022-08-07T20:11:10.312Z,45.82
2022-08-07T20:13:55.500Z,46.15
2022-08-07T20:16:35.174Z,46.25
2022-08-07T20:19:00.501Z,46.59
2022-08-07T20:21:25.121Z,46.79
2022-08-07T20:24:03.818Z,46.96
2022-08-07T20:26:45.099Z,47.06
2022-08-07T20:29:47.722Z,47.06
2022-08-07T20:32:02.598Z,47.65
2022-08-07T20:34:49.333Z,47.48
2022-08-07T20:37:15.217Z,47.80
2022-08-07T20:42:23.921Z,48.11
2022-08-07T20:44:50.016Z,48.52
2022-08-07T20:47:14.670Z,48.41
2022-08-07T20:50:00.835Z,48.44
2022-08-07T20:52:50.395Z,48.80
2022-08-07T20:55:07.153Z,48.69
2022-08-07T20:57:47.340Z,49.07
2022-08-07T21:00:24.220Z,49.55
2022-08-07T21:03:03.133Z,49.61
2022-08-07T21:05:50.975Z,49.64
2022-08-07T21:08:29.379Z,49.99
2022-08-07T21:11:02.690Z,49.55
2022-08-07T21:13:44.006Z,49.89
2022-08-07T21:16:13.293Z,50.47
2022-08-07T21:18:46.219Z,50.30
2022-08-07T21:21:17.265Z,50.83
2022-08-07T21:23:53.441Z,51.00
2022-08-07T21:26:44.489Z,50.81
2022-08-07T21:29:18.696Z,51.01
2022-08-07T21:32:42.754Z,51.07
2022-08-07T21:35:11.469Z,51.61
2022-08-07T21:38:04.522Z,51.81
2022-08-07T21:40:49.437Z,51.84
2022-08-07T21:43:36.744Z,51.83
2022-08-07T21:46:25.192Z,52.29
2022-08-07T21:49:16.348Z,52.51
2022-08-07T21:51:51.216Z,52.88
2022-08-07T21:54:29.703Z,53.08
2022-08-07T21:57:40.038Z,53.48
2022-08-07T22:00:23.082Z,53.86
2022-08-07T22:03:06.612Z,53.95
2022-08-07T22:05:44.743Z,54.23
2022-08-07T22:08:10.561Z,53.99
2022-08-07T22:10:35.478Z,54.04
2022-08-07T22:13:01.240Z,53.82
2022-08-07T22:16:44.785Z,54.08
2022-08-07T22:18:47.212Z,54.29
2022-08-07T22:21:21.774Z,54.64
2022-08-07T22:24:02.424Z,54.67
2022-08-07T22:26:49.757Z,54.60
2022-08-07T22:29:48.179Z,54.48
2022-08-07T22:32:46.777Z,54.41
2022-08-07T22:35:13.194Z,54.46
2022-08-07T22:38:05.659Z,54.39
2022-08-07T22:40:43.721Z,54.73
2022-08-07T22:43:21.543Z,54.33
2022-08-07T22:46:47.065Z,54.59
2022-08-07T22:49:23.191Z,54.87
2022-08-07T22:52:39.249Z,54.77
2022-08-07T22:55:22.979Z,54.81
2022-08-07T22:58:00.559Z,55.61
2022-08-07T23:00:32.269Z,55.51
2022-08-07T23:02:57.422Z,56.19
2022-08-07T23:06:09.633Z,56.07
2022-08-07T23:08:38.117Z,55.90
2022-08-07T23:11:27.840Z,55.92
2022-08-07T23:14:15.157Z,56.20
2022-08-07T23:17:12.776Z,56.41
2022-08-07T23:20:40.718Z,56.87
2022-08-07T23:24:05.741Z,56.47
2022-08-07T23:26:58.372Z,56.96
2022-08-07T23:30:38.838Z,57.22
2022-08-07T23:34:36.243Z,57.61
2022-08-07T23:36:17.241Z,58.16
2022-08-07T23:39:26.721Z,58.52
2022-08-07T23:42:22.226Z,58.54
2022-08-07T23:46:02.698Z,58.36
2022-08-07T23:48:58.686Z,58.91
2022-08-07T23:52:58.832Z,58.58
2022-08-07T23:54:59.710Z,58.81
2022-08-07T23:57:36.969Z,59.04
